sensor_id;sensor_type;location;lat;lon;timestamp;P1;durP1;ratioP1;P2;durP2;ratioP2
64282;SDS011;50497;50.720;-2.084;2023-02-13T00:00:00;24.70;;;11.30;;
64282;SDS011;50497;50.720;-2.084;2023-02-13T00:02:31;17.60;;;8.30;;
64282;SDS011;50497;50.720;-2.084;2023-02-13T00:04:57;18.55;;;8.23;;
64282;SDS011;50497;50.720;-2.084;2023-02-13T00:07:22;21.85;;;9.90;;
64282;SDS011;50497;50.720;-2.084;2023-02-13T00:09:47;18.27;;;8.50;;
64282;SDS011;50497;50.720;-2.084;2023-02-13T00:12:13;17.90;;;8.38;;
64282;SDS011;50497;50.720;-2.084;2023-02-13T00:14:39;20.95;;;8.55;;
64282;SDS011;50497;50.720;-2.084;2023-02-13T00:17:04;18.70;;;8.70;;
64282;SDS011;50497;50.720;-2.084;2023-02-13T00:19:30;19.42;;;9.00;;
64282;SDS011;50497;50.720;-2.084;2023-02-13T00:21:59;21.48;;;9.60;;
64282;SDS011;50497;50.720;-2.084;2023-02-13T00:24:25;19.92;;;8.75;;
64282;SDS011;50497;50.720;-2.084;2023-02-13T00:26:50;19.20;;;8.68;;
64282;SDS011;50497;50.720;-2.084;2023-02-13T00:29:16;20.27;;;9.13;;
64282;SDS011;50497;50.720;-2.084;2023-02-13T00:31:41;18.55;;;8.85;;
64282;SDS011;50497;50.720;-2.084;2023-02-13T00:34:06;20.75;;;10.10;;
64282;SDS011;50497;50.720;-2.084;2023-02-13T00:36:32;20.40;;;9.55;;
64282;SDS011;50497;50.720;-2.084;2023-02-13T00:38:57;22.65;;;9.95;;
64282;SDS011;50497;50.720;-2.084;2023-02-13T00:41:23;20.13;;;9.45;;
64282;SDS011;50497;50.720;-2.084;2023-02-13T00:43:48;20.98;;;9.30;;
64282;SDS011;50497;50.720;-2.084;2023-02-13T00:46:15;21.00;;;9.30;;
64282;SDS011;50497;50.720;-2.084;2023-02-13T00:51:06;22.13;;;9.10;;
64282;SDS011;50497;50.720;-2.084;2023-02-13T00:53:33;21.63;;;9.90;;
64282;SDS011;50497;50.720;-2.084;2023-02-13T00:56:00;23.13;;;10.07;;
64282;SDS011;50497;50.720;-2.084;2023-02-13T00:58:26;22.70;;;9.65;;
64282;SDS011;50497;50.720;-2.084;2023-02-13T01:00:52;22.25;;;9.85;;
64282;SDS011;50497;50.720;-2.084;2023-02-13T01:03:21;22.25;;;10.15;;
64282;SDS011;50497;50.720;-2.084;2023-02-13T01:05:47;24.15;;;10.43;;
64282;SDS011;50497;50.720;-2.084;2023-02-13T01:08:14;23.65;;;10.93;;
64282;SDS011;50497;50.720;-2.084;2023-02-13T01:10:41;23.27;;;10.32;;
64282;SDS011;50497;50.720;-2.084;2023-02-13T01:13:08;22.27;;;11.20;;
64282;SDS011;50497;50.720;-2.084;2023-02-13T01:15:34;25.63;;;10.90;;
64282;SDS011;50497;50.720;-2.084;2023-02-13T01:17:59;22.73;;;11.00;;
64282;SDS011;50497;50.720;-2.084;2023-02-13T01:20:26;25.83;;;11.60;;
64282;SDS011;50497;50.720;-2.084;2023-02-13T01:22:52;22.95;;;10.77;;
64282;SDS011;50497;50.720;-2.084;2023-02-13T01:25:18;23.10;;;11.10;;
64282;SDS011;50497;50.720;-2.084;2023-02-13T01:27:43;23.88;;;11.18;;
64282;SDS011;50497;50.720;-2.084;2023-02-13T01:30:09;22.90;;;10.90;;
64282;SDS011;50497;50.720;-2.084;2023-02-13T01:32:41;23.92;;;11.43;;
64282;SDS011;50497;50.720;-2.084;2023-02-13T01:35:09;23.90;;;11.82;;
64282;SDS011;50497;50.720;-2.084;2023-02-13T01:37:35;26.55;;;11.77;;
64282;SDS011;50497;50.720;-2.084;2023-02-13T01:40:05;25.27;;;11.98;;
64282;SDS011;50497;50.720;-2.084;2023-02-13T01:42:35;20.50;;;9.20;;
64282;SDS011;50497;50.720;-2.084;2023-02-13T01:45:44;26.63;;;11.98;;
64282;SDS011;50497;50.720;-2.084;2023-02-13T01:47:59;23.70;;;12.00;;
64282;SDS011;50497;50.720;-2.084;2023-02-13T01:50:36;24.10;;;11.80;;
64282;SDS011;50497;50.720;-2.084;2023-02-13T01:53:08;24.17;;;11.38;;
64282;SDS011;50497;50.720;-2.084;2023-02-13T01:55:46;28.48;;;12.43;;
64282;SDS011;50497;50.720;-2.084;2023-02-13T01:58:17;24.67;;;12.25;;
64282;SDS011;50497;50.720;-2.084;2023-02-13T02:00:46;26.52;;;13.45;;
64282;SDS011;50497;50.720;-2.084;2023-02-13T02:03:20;27.08;;;12.90;;
64282;SDS011;50497;50.720;-2.084;2023-02-13T02:05:54;29.75;;;13.20;;
64282;SDS011;50497;50.720;-2.084;2023-02-13T02:08:22;29.60;;;13.20;;
64282;SDS011;50497;50.720;-2.084;2023-02-13T02:10:48;29.83;;;13.52;;
64282;SDS011;50497;50.720;-2.084;2023-02-13T02:13:15;28.40;;;13.23;;
64282;SDS011;50497;50.720;-2.084;2023-02-13T02:15:46;26.42;;;12.07;;
64282;SDS011;50497;50.720;-2.084;2023-02-13T02:20:44;27.70;;;12.75;;
64282;SDS011;50497;50.720;-2.084;2023-02-13T02:32:47;25.90;;;12.82;;
64282;SDS011;50497;50.720;-2.084;2023-02-13T02:35:33;28.13;;;11.88;;
64282;SDS011;50497;50.720;-2.084;2023-02-13T02:50:13;28.52;;;13.18;;
64282;SDS011;50497;50.720;-2.084;2023-02-13T02:55:35;29.23;;;13.32;;
64282;SDS011;50497;50.720;-2.084;2023-02-13T02:58:23;28.58;;;12.27;;
64282;SDS011;50497;50.720;-2.084;2023-02-13T03:01:15;28.30;;;12.15;;
64282;SDS011;50497;50.720;-2.084;2023-02-13T03:04:03;28.05;;;12.40;;
64282;SDS011;50497;50.720;-2.084;2023-02-13T03:06:52;27.48;;;11.75;;
64282;SDS011;50497;50.720;-2.084;2023-02-13T03:09:31;26.23;;;12.20;;
64282;SDS011;50497;50.720;-2.084;2023-02-13T03:12:21;26.23;;;11.82;;
64282;SDS011;50497;50.720;-2.084;2023-02-13T03:15:13;28.83;;;12.82;;
64282;SDS011;50497;50.720;-2.084;2023-02-13T03:17:39;28.50;;;12.63;;
64282;SDS011;50497;50.720;-2.084;2023-02-13T03:20:29;29.60;;;12.70;;
64282;SDS011;50497;50.720;-2.084;2023-02-13T03:35:10;24.60;;;11.93;;
64282;SDS011;50497;50.720;-2.084;2023-02-13T03:38:15;26.65;;;12.40;;
64282;SDS011;50497;50.720;-2.084;2023-02-13T03:43:41;29.10;;;12.10;;
64282;SDS011;50497;50.720;-2.084;2023-02-13T03:46:27;26.23;;;11.13;;
64282;SDS011;50497;50.720;-2.084;2023-02-13T03:48:57;26.40;;;12.13;;
64282;SDS011;50497;50.720;-2.084;2023-02-13T03:56:43;25.35;;;11.63;;
64282;SDS011;50497;50.720;-2.084;2023-02-13T03:59:30;25.13;;;12.30;;
64282;SDS011;50497;50.720;-2.084;2023-02-13T04:02:05;30.00;;;13.13;;
64282;SDS011;50497;50.720;-2.084;2023-02-13T04:07:18;29.63;;;12.95;;
64282;SDS011;50497;50.720;-2.084;2023-02-13T04:10:05;28.17;;;13.25;;
64282;SDS011;50497;50.720;-2.084;2023-02-13T04:15:15;25.55;;;12.27;;
64282;SDS011;50497;50.720;-2.084;2023-02-13T04:17:52;30.42;;;13.80;;
64282;SDS011;50497;50.720;-2.084;2023-02-13T04:20:27;25.95;;;12.60;;
64282;SDS011;50497;50.720;-2.084;2023-02-13T04:22:56;26.55;;;13.10;;
64282;SDS011;50497;50.720;-2.084;2023-02-13T04:25:21;29.33;;;12.93;;
64282;SDS011;50497;50.720;-2.084;2023-02-13T04:27:47;29.83;;;12.45;;
64282;SDS011;50497;50.720;-2.084;2023-02-13T04:30:12;25.92;;;12.65;;
64282;SDS011;50497;50.720;-2.084;2023-02-13T04:32:38;27.45;;;12.32;;
64282;SDS011;50497;50.720;-2.084;2023-02-13T04:35:04;26.05;;;11.90;;
64282;SDS011;50497;50.720;-2.084;2023-02-13T04:37:30;31.33;;;13.25;;
64282;SDS011;50497;50.720;-2.084;2023-02-13T04:39:55;27.55;;;11.93;;
64282;SDS011;50497;50.720;-2.084;2023-02-13T04:42:21;26.67;;;13.25;;
64282;SDS011;50497;50.720;-2.084;2023-02-13T04:44:46;27.42;;;12.52;;
64282;SDS011;50497;50.720;-2.084;2023-02-13T04:47:12;26.73;;;12.80;;
64282;SDS011;50497;50.720;-2.084;2023-02-13T04:49:37;28.48;;;13.23;;
64282;SDS011;50497;50.720;-2.084;2023-02-13T04:52:02;27.48;;;13.13;;
64282;SDS011;50497;50.720;-2.084;2023-02-13T04:54:28;30.45;;;13.70;;
64282;SDS011;50497;50.720;-2.084;2023-02-13T04:56:54;30.48;;;14.10;;
64282;SDS011;50497;50.720;-2.084;2023-02-13T04:59:19;27.83;;;14.10;;
64282;SDS011;50497;50.720;-2.084;2023-02-13T05:01:44;28.67;;;13.77;;
64282;SDS011;50497;50.720;-2.084;2023-02-13T05:04:10;28.30;;;13.35;;
64282;SDS011;50497;50.720;-2.084;2023-02-13T05:06:40;28.17;;;13.27;;
64282;SDS011;50497;50.720;-2.084;2023-02-13T05:09:09;29.88;;;13.63;;
64282;SDS011;50497;50.720;-2.084;2023-02-13T05:11:35;29.70;;;13.38;;
64282;SDS011;50497;50.720;-2.084;2023-02-13T05:14:00;30.70;;;14.45;;
64282;SDS011;50497;50.720;-2.084;2023-02-13T05:16:26;30.10;;;14.32;;
64282;SDS011;50497;50.720;-2.084;2023-02-13T05:18:51;27.65;;;13.23;;
64282;SDS011;50497;50.720;-2.084;2023-02-13T05:21:19;26.65;;;12.35;;
64282;SDS011;50497;50.720;-2.084;2023-02-13T05:24:04;30.70;;;13.88;;
64282;SDS011;50497;50.720;-2.084;2023-02-13T05:26:30;28.15;;;12.93;;
64282;SDS011;50497;50.720;-2.084;2023-02-13T05:28:55;29.52;;;13.02;;
64282;SDS011;50497;50.720;-2.084;2023-02-13T05:31:39;29.58;;;13.48;;
64282;SDS011;50497;50.720;-2.084;2023-02-13T05:34:05;29.52;;;13.63;;
64282;SDS011;50497;50.720;-2.084;2023-02-13T05:36:30;29.88;;;13.98;;
64282;SDS011;50497;50.720;-2.084;2023-02-13T05:38:56;27.23;;;13.27;;
64282;SDS011;50497;50.720;-2.084;2023-02-13T05:41:21;26.45;;;12.60;;
64282;SDS011;50497;50.720;-2.084;2023-02-13T05:43:47;25.20;;;12.18;;
64282;SDS011;50497;50.720;-2.084;2023-02-13T05:46:12;26.90;;;12.82;;
64282;SDS011;50497;50.720;-2.084;2023-02-13T05:48:38;29.17;;;12.10;;
64282;SDS011;50497;50.720;-2.084;2023-02-13T05:51:03;26.55;;;11.80;;
64282;SDS011;50497;50.720;-2.084;2023-02-13T05:53:35;28.90;;;13.05;;
64282;SDS011;50497;50.720;-2.084;2023-02-13T05:56:01;27.80;;;13.00;;
64282;SDS011;50497;50.720;-2.084;2023-02-13T05:58:29;26.02;;;12.82;;
64282;SDS011;50497;50.720;-2.084;2023-02-13T06:00:55;29.17;;;14.02;;
64282;SDS011;50497;50.720;-2.084;2023-02-13T06:03:25;29.02;;;13.90;;
64282;SDS011;50497;50.720;-2.084;2023-02-13T06:05:52;30.55;;;14.60;;
64282;SDS011;50497;50.720;-2.084;2023-02-13T06:08:22;28.25;;;13.55;;
64282;SDS011;50497;50.720;-2.084;2023-02-13T06:10:48;31.38;;;14.35;;
64282;SDS011;50497;50.720;-2.084;2023-02-13T06:13:14;30.05;;;13.80;;
64282;SDS011;50497;50.720;-2.084;2023-02-13T06:15:41;31.92;;;14.05;;
64282;SDS011;50497;50.720;-2.084;2023-02-13T06:18:07;34.05;;;15.80;;
64282;SDS011;50497;50.720;-2.084;2023-02-13T06:20:32;26.05;;;13.20;;
64282;SDS011;50497;50.720;-2.084;2023-02-13T06:22:58;29.13;;;14.43;;
64282;SDS011;50497;50.720;-2.084;2023-02-13T06:25:25;30.77;;;13.95;;
64282;SDS011;50497;50.720;-2.084;2023-02-13T06:27:51;29.13;;;14.23;;
64282;SDS011;50497;50.720;-2.084;2023-02-13T06:30:17;32.78;;;14.65;;
64282;SDS011;50497;50.720;-2.084;2023-02-13T06:32:43;33.17;;;15.32;;
64282;SDS011;50497;50.720;-2.084;2023-02-13T06:35:10;31.15;;;15.18;;
64282;SDS011;50497;50.720;-2.084;2023-02-13T06:37:36;34.58;;;15.00;;
64282;SDS011;50497;50.720;-2.084;2023-02-13T06:40:02;33.30;;;14.20;;
64282;SDS011;50497;50.720;-2.084;2023-02-13T06:42:27;31.60;;;14.50;;
64282;SDS011;50497;50.720;-2.084;2023-02-13T06:44:53;33.15;;;15.80;;
64282;SDS011;50497;50.720;-2.084;2023-02-13T06:47:18;34.13;;;15.38;;
64282;SDS011;50497;50.720;-2.084;2023-02-13T06:49:44;32.45;;;14.27;;
64282;SDS011;50497;50.720;-2.084;2023-02-13T06:52:10;31.77;;;15.20;;
64282;SDS011;50497;50.720;-2.084;2023-02-13T06:54:37;33.60;;;15.55;;
64282;SDS011;50497;50.720;-2.084;2023-02-13T06:57:04;35.30;;;16.13;;
64282;SDS011;50497;50.720;-2.084;2023-02-13T06:59:32;33.53;;;15.73;;
64282;SDS011;50497;50.720;-2.084;2023-02-13T07:02:02;38.13;;;16.13;;
64282;SDS011;50497;50.720;-2.084;2023-02-13T07:04:28;34.53;;;15.32;;
64282;SDS011;50497;50.720;-2.084;2023-02-13T07:06:54;31.63;;;14.00;;
64282;SDS011;50497;50.720;-2.084;2023-02-13T07:09:23;34.35;;;15.18;;
64282;SDS011;50497;50.720;-2.084;2023-02-13T07:11:48;34.05;;;15.35;;
64282;SDS011;50497;50.720;-2.084;2023-02-13T07:14:16;29.65;;;14.35;;
64282;SDS011;50497;50.720;-2.084;2023-02-13T07:16:42;31.73;;;15.05;;
64282;SDS011;50497;50.720;-2.084;2023-02-13T07:19:07;33.33;;;15.15;;
64282;SDS011;50497;50.720;-2.084;2023-02-13T07:21:36;33.13;;;15.25;;
64282;SDS011;50497;50.720;-2.084;2023-02-13T07:24:02;33.28;;;15.45;;
64282;SDS011;50497;50.720;-2.084;2023-02-13T07:26:31;28.48;;;13.95;;
64282;SDS011;50497;50.720;-2.084;2023-02-13T07:29:10;32.97;;;15.35;;
64282;SDS011;50497;50.720;-2.084;2023-02-13T07:31:37;32.50;;;15.45;;
64282;SDS011;50497;50.720;-2.084;2023-02-13T07:34:03;31.27;;;14.75;;
64282;SDS011;50497;50.720;-2.084;2023-02-13T07:36:29;31.25;;;13.13;;
64282;SDS011;50497;50.720;-2.084;2023-02-13T07:38:58;32.13;;;15.85;;
64282;SDS011;50497;50.720;-2.084;2023-02-13T07:41:24;33.08;;;15.60;;
64282;SDS011;50497;50.720;-2.084;2023-02-13T07:44:00;34.38;;;15.30;;
64282;SDS011;50497;50.720;-2.084;2023-02-13T07:46:28;37.95;;;16.73;;
64282;SDS011;50497;50.720;-2.084;2023-02-13T07:48:59;36.30;;;16.08;;
64282;SDS011;50497;50.720;-2.084;2023-02-13T07:51:24;35.22;;;15.60;;
64282;SDS011;50497;50.720;-2.084;2023-02-13T07:53:53;36.92;;;15.93;;
64282;SDS011;50497;50.720;-2.084;2023-02-13T07:56:19;38.72;;;14.85;;
64282;SDS011;50497;50.720;-2.084;2023-02-13T07:58:46;39.97;;;16.65;;
64282;SDS011;50497;50.720;-2.084;2023-02-13T08:01:16;38.30;;;15.65;;
64282;SDS011;50497;50.720;-2.084;2023-02-13T08:03:47;37.88;;;16.70;;
64282;SDS011;50497;50.720;-2.084;2023-02-13T08:06:24;40.50;;;15.45;;
64282;SDS011;50497;50.720;-2.084;2023-02-13T08:08:52;37.88;;;16.65;;
64282;SDS011;50497;50.720;-2.084;2023-02-13T08:11:38;37.72;;;16.85;;
64282;SDS011;50497;50.720;-2.084;2023-02-13T08:14:26;38.65;;;16.27;;
64282;SDS011;50497;50.720;-2.084;2023-02-13T08:16:57;38.40;;;16.90;;
64282;SDS011;50497;50.720;-2.084;2023-02-13T08:19:28;37.50;;;16.80;;
64282;SDS011;50497;50.720;-2.084;2023-02-13T08:22:02;34.03;;;15.20;;
64282;SDS011;50497;50.720;-2.084;2023-02-13T08:24:33;33.42;;;16.10;;
64282;SDS011;50497;50.720;-2.084;2023-02-13T08:27:04;34.33;;;16.00;;
64282;SDS011;50497;50.720;-2.084;2023-02-13T08:29:39;37.03;;;17.35;;
64282;SDS011;50497;50.720;-2.084;2023-02-13T08:32:09;39.17;;;18.40;;
64282;SDS011;50497;50.720;-2.084;2023-02-13T08:34:35;31.80;;;14.95;;
64282;SDS011;50497;50.720;-2.084;2023-02-13T08:37:07;40.10;;;18.05;;
64282;SDS011;50497;50.720;-2.084;2023-02-13T08:39:32;38.15;;;17.65;;
64282;SDS011;50497;50.720;-2.084;2023-02-13T08:42:02;38.30;;;16.90;;
64282;SDS011;50497;50.720;-2.084;2023-02-13T08:44:27;38.75;;;18.60;;
64282;SDS011;50497;50.720;-2.084;2023-02-13T08:46:53;37.58;;;18.55;;
64282;SDS011;50497;50.720;-2.084;2023-02-13T08:49:22;37.20;;;17.98;;
64282;SDS011;50497;50.720;-2.084;2023-02-13T08:51:48;37.50;;;17.95;;
64282;SDS011;50497;50.720;-2.084;2023-02-13T08:56:44;36.90;;;15.80;;
64282;SDS011;50497;50.720;-2.084;2023-02-13T08:59:10;42.28;;;17.63;;
64282;SDS011;50497;50.720;-2.084;2023-02-13T09:01:35;37.80;;;17.02;;
64282;SDS011;50497;50.720;-2.084;2023-02-13T09:04:04;41.63;;;19.10;;
64282;SDS011;50497;50.720;-2.084;2023-02-13T09:06:31;41.22;;;18.63;;
64282;SDS011;50497;50.720;-2.084;2023-02-13T09:08:59;40.45;;;19.05;;
64282;SDS011;50497;50.720;-2.084;2023-02-13T09:11:27;38.17;;;18.15;;
64282;SDS011;50497;50.720;-2.084;2023-02-13T09:14:00;42.95;;;19.35;;
64282;SDS011;50497;50.720;-2.084;2023-02-13T09:16:25;39.95;;;19.20;;
64282;SDS011;50497;50.720;-2.084;2023-02-13T09:18:55;38.88;;;17.08;;
64282;SDS011;50497;50.720;-2.084;2023-02-13T09:21:27;41.53;;;18.65;;
64282;SDS011;50497;50.720;-2.084;2023-02-13T09:23:52;40.20;;;18.52;;
64282;SDS011;50497;50.720;-2.084;2023-02-13T09:26:19;41.78;;;20.35;;
64282;SDS011;50497;50.720;-2.084;2023-02-13T09:28:49;42.20;;;19.85;;
64282;SDS011;50497;50.720;-2.084;2023-02-13T09:31:15;39.22;;;19.05;;
64282;SDS011;50497;50.720;-2.084;2023-02-13T09:33:43;34.17;;;15.18;;
64282;SDS011;50497;50.720;-2.084;2023-02-13T09:38:52;38.75;;;18.20;;
64282;SDS011;50497;50.720;-2.084;2023-02-13T09:41:30;38.95;;;18.63;;
64282;SDS011;50497;50.720;-2.084;2023-02-13T09:46:40;41.17;;;18.92;;
64282;SDS011;50497;50.720;-2.084;2023-02-13T09:49:17;39.75;;;18.92;;
64282;SDS011;50497;50.720;-2.084;2023-02-13T09:51:50;43.25;;;18.98;;
64282;SDS011;50497;50.720;-2.084;2023-02-13T09:54:23;41.75;;;19.75;;
64282;SDS011;50497;50.720;-2.084;2023-02-13T10:02:00;37.15;;;16.90;;
64282;SDS011;50497;50.720;-2.084;2023-02-13T10:04:46;74.88;;;29.70;;
64282;SDS011;50497;50.720;-2.084;2023-02-13T10:07:33;70.95;;;27.98;;
64282;SDS011;50497;50.720;-2.084;2023-02-13T10:12:45;64.22;;;31.63;;
64282;SDS011;50497;50.720;-2.084;2023-02-13T10:21:30;45.70;;;21.80;;
64282;SDS011;50497;50.720;-2.084;2023-02-13T10:24:04;38.97;;;17.98;;
64282;SDS011;50497;50.720;-2.084;2023-02-13T10:26:36;40.17;;;19.52;;
64282;SDS011;50497;50.720;-2.084;2023-02-13T10:32:10;57.03;;;25.73;;
64282;SDS011;50497;50.720;-2.084;2023-02-13T10:34:44;41.33;;;18.08;;
64282;SDS011;50497;50.720;-2.084;2023-02-13T10:37:12;39.88;;;19.02;;
64282;SDS011;50497;50.720;-2.084;2023-02-13T10:40:04;59.35;;;27.08;;
64282;SDS011;50497;50.720;-2.084;2023-02-13T10:42:38;60.13;;;26.92;;
64282;SDS011;50497;50.720;-2.084;2023-02-13T10:48:01;87.53;;;45.10;;
64282;SDS011;50497;50.720;-2.084;2023-02-13T10:53:22;53.13;;;25.60;;
64282;SDS011;50497;50.720;-2.084;2023-02-13T10:58:49;52.72;;;25.08;;
64282;SDS011;50497;50.720;-2.084;2023-02-13T11:01:39;45.40;;;20.10;;
64282;SDS011;50497;50.720;-2.084;2023-02-13T11:06:54;47.50;;;21.63;;
64282;SDS011;50497;50.720;-2.084;2023-02-13T11:09:35;39.33;;;18.33;;
64282;SDS011;50497;50.720;-2.084;2023-02-13T11:12:25;36.30;;;16.52;;
64282;SDS011;50497;50.720;-2.084;2023-02-13T11:14:56;41.22;;;19.02;;
64282;SDS011;50497;50.720;-2.084;2023-02-13T11:17:29;40.72;;;20.02;;
64282;SDS011;50497;50.720;-2.084;2023-02-13T11:19:57;40.90;;;18.50;;
64282;SDS011;50497;50.720;-2.084;2023-02-13T11:22:32;42.55;;;19.13;;
64282;SDS011;50497;50.720;-2.084;2023-02-13T11:25:05;43.17;;;19.98;;
64282;SDS011;50497;50.720;-2.084;2023-02-13T11:27:45;40.40;;;19.33;;
64282;SDS011;50497;50.720;-2.084;2023-02-13T11:32:57;38.97;;;19.55;;
64282;SDS011;50497;50.720;-2.084;2023-02-13T11:35:33;37.70;;;18.25;;
64282;SDS011;50497;50.720;-2.084;2023-02-13T11:40:43;33.33;;;15.93;;
64282;SDS011;50497;50.720;-2.084;2023-02-13T11:43:24;41.63;;;19.52;;
64282;SDS011;50497;50.720;-2.084;2023-02-13T11:46:02;39.65;;;17.92;;
64282;SDS011;50497;50.720;-2.084;2023-02-13T11:48:41;41.42;;;19.15;;
64282;SDS011;50497;50.720;-2.084;2023-02-13T11:51:09;39.72;;;17.92;;
64282;SDS011;50497;50.720;-2.084;2023-02-13T11:53:39;37.38;;;17.33;;
64282;SDS011;50497;50.720;-2.084;2023-02-13T11:56:09;38.88;;;18.00;;
64282;SDS011;50497;50.720;-2.084;2023-02-13T11:58:39;36.58;;;16.55;;
64282;SDS011;50497;50.720;-2.084;2023-02-13T12:04:29;39.08;;;18.13;;
64282;SDS011;50497;50.720;-2.084;2023-02-13T12:07:02;39.65;;;16.98;;
64282;SDS011;50497;50.720;-2.084;2023-02-13T12:10:06;39.88;;;18.80;;
64282;SDS011;50497;50.720;-2.084;2023-02-13T12:15:38;38.80;;;18.70;;
64282;SDS011;50497;50.720;-2.084;2023-02-13T12:26:12;44.58;;;19.20;;
64282;SDS011;50497;50.720;-2.084;2023-02-13T13:00:53;44.22;;;18.35;;
64282;SDS011;50497;50.720;-2.084;2023-02-13T13:03:38;43.67;;;19.70;;
64282;SDS011;50497;50.720;-2.084;2023-02-13T13:14:45;39.22;;;18.27;;
64282;SDS011;50497;50.720;-2.084;2023-02-13T13:17:51;42.33;;;19.83;;
64282;SDS011;50497;50.720;-2.084;2023-02-13T13:23:21;38.53;;;17.77;;
64282;SDS011;50497;50.720;-2.084;2023-02-13T13:26:17;40.83;;;17.92;;
64282;SDS011;50497;50.720;-2.084;2023-02-13T13:28:58;40.13;;;17.77;;
64282;SDS011;50497;50.720;-2.084;2023-02-13T13:31:26;37.75;;;16.67;;
64282;SDS011;50497;50.720;-2.084;2023-02-13T13:34:02;39.85;;;19.05;;
64282;SDS011;50497;50.720;-2.084;2023-02-13T13:36:37;38.95;;;17.25;;
64282;SDS011;50497;50.720;-2.084;2023-02-13T13:39:31;42.97;;;19.70;;
64282;SDS011;50497;50.720;-2.084;2023-02-13T13:42:10;39.08;;;19.00;;
64282;SDS011;50497;50.720;-2.084;2023-02-13T13:50:27;42.25;;;19.15;;
64282;SDS011;50497;50.720;-2.084;2023-02-13T14:09:41;39.38;;;18.92;;
64282;SDS011;50497;50.720;-2.084;2023-02-13T14:14:54;41.53;;;19.23;;
64282;SDS011;50497;50.720;-2.084;2023-02-13T14:31:19;44.10;;;19.83;;
64282;SDS011;50497;50.720;-2.084;2023-02-13T14:33:53;42.08;;;19.55;;
64282;SDS011;50497;50.720;-2.084;2023-02-13T14:36:32;43.40;;;18.25;;
64282;SDS011;50497;50.720;-2.084;2023-02-13T14:44:30;39.85;;;18.40;;
64282;SDS011;50497;50.720;-2.084;2023-02-13T14:47:00;30.10;;;12.93;;
64282;SDS011;50497;50.720;-2.084;2023-02-13T14:49:39;41.55;;;18.42;;
64282;SDS011;50497;50.720;-2.084;2023-02-13T14:52:14;40.90;;;19.42;;
64282;SDS011;50497;50.720;-2.084;2023-02-13T14:54:54;41.90;;;19.67;;
64282;SDS011;50497;50.720;-2.084;2023-02-13T14:57:26;43.97;;;19.92;;
64282;SDS011;50497;50.720;-2.084;2023-02-13T15:00:00;42.40;;;19.88;;
64282;SDS011;50497;50.720;-2.084;2023-02-13T15:03:01;45.40;;;19.83;;
64282;SDS011;50497;50.720;-2.084;2023-02-13T15:05:41;42.05;;;19.40;;
64282;SDS011;50497;50.720;-2.084;2023-02-13T15:08:27;46.28;;;20.48;;
64282;SDS011;50497;50.720;-2.084;2023-02-13T15:11:03;43.30;;;19.38;;
64282;SDS011;50497;50.720;-2.084;2023-02-13T15:13:54;40.97;;;18.05;;
64282;SDS011;50497;50.720;-2.084;2023-02-13T15:16:39;42.38;;;20.25;;
64282;SDS011;50497;50.720;-2.084;2023-02-13T15:19:17;44.17;;;20.45;;
64282;SDS011;50497;50.720;-2.084;2023-02-13T15:21:55;42.63;;;19.40;;
64282;SDS011;50497;50.720;-2.084;2023-02-13T15:24:44;41.45;;;19.30;;
64282;SDS011;50497;50.720;-2.084;2023-02-13T15:27:24;44.17;;;20.80;;
64282;SDS011;50497;50.720;-2.084;2023-02-13T15:29:52;39.72;;;18.33;;
64282;SDS011;50497;50.720;-2.084;2023-02-13T15:32:34;42.80;;;19.00;;
64282;SDS011;50497;50.720;-2.084;2023-02-13T15:37:50;44.47;;;20.80;;
64282;SDS011;50497;50.720;-2.084;2023-02-13T15:40:24;44.92;;;21.08;;
64282;SDS011;50497;50.720;-2.084;2023-02-13T15:42:54;47.20;;;19.13;;
64282;SDS011;50497;50.720;-2.084;2023-02-13T15:45:25;45.67;;;20.80;;
64282;SDS011;50497;50.720;-2.084;2023-02-13T15:47:52;46.50;;;20.60;;
64282;SDS011;50497;50.720;-2.084;2023-02-13T15:50:32;49.42;;;21.20;;
64282;SDS011;50497;50.720;-2.084;2023-02-13T15:53:02;48.65;;;21.88;;
64282;SDS011;50497;50.720;-2.084;2023-02-13T15:55:38;47.45;;;21.00;;
64282;SDS011;50497;50.720;-2.084;2023-02-13T15:58:04;49.97;;;21.92;;
64282;SDS011;50497;50.720;-2.084;2023-02-13T16:00:40;48.53;;;20.52;;
64282;SDS011;50497;50.720;-2.084;2023-02-13T16:03:11;49.20;;;21.10;;
64282;SDS011;50497;50.720;-2.084;2023-02-13T16:05:40;49.42;;;21.23;;
64282;SDS011;50497;50.720;-2.084;2023-02-13T16:16:53;48.35;;;21.98;;
64282;SDS011;50497;50.720;-2.084;2023-02-13T16:19:30;54.00;;;22.80;;
64282;SDS011;50497;50.720;-2.084;2023-02-13T16:22:45;50.35;;;21.33;;
64282;SDS011;50497;50.720;-2.084;2023-02-13T16:27:47;50.67;;;21.90;;
64282;SDS011;50497;50.720;-2.084;2023-02-13T16:30:21;56.17;;;20.83;;
64282;SDS011;50497;50.720;-2.084;2023-02-13T16:38:43;50.58;;;22.65;;
64282;SDS011;50497;50.720;-2.084;2023-02-13T16:43:58;52.22;;;23.92;;
64282;SDS011;50497;50.720;-2.084;2023-02-13T16:46:38;48.17;;;20.15;;
64282;SDS011;50497;50.720;-2.084;2023-02-13T16:49:18;54.95;;;23.30;;
64282;SDS011;50497;50.720;-2.084;2023-02-13T16:54:34;52.90;;;23.10;;
64282;SDS011;50497;50.720;-2.084;2023-02-13T17:04:40;49.13;;;20.95;;
64282;SDS011;50497;50.720;-2.084;2023-02-13T17:07:39;52.70;;;23.33;;
64282;SDS011;50497;50.720;-2.084;2023-02-13T17:12:56;56.95;;;23.85;;
64282;SDS011;50497;50.720;-2.084;2023-02-13T17:15:26;55.67;;;23.02;;
64282;SDS011;50497;50.720;-2.084;2023-02-13T17:17:54;53.92;;;23.17;;
64282;SDS011;50497;50.720;-2.084;2023-02-13T17:20:23;56.83;;;23.38;;
64282;SDS011;50497;50.720;-2.084;2023-02-13T17:23:00;57.25;;;23.33;;
64282;SDS011;50497;50.720;-2.084;2023-02-13T17:25:33;56.33;;;24.75;;
64282;SDS011;50497;50.720;-2.084;2023-02-13T17:33:26;58.67;;;23.85;;
64282;SDS011;50497;50.720;-2.084;2023-02-13T17:35:58;59.08;;;24.92;;
64282;SDS011;50497;50.720;-2.084;2023-02-13T17:38:23;59.53;;;25.30;;
64282;SDS011;50497;50.720;-2.084;2023-02-13T17:40:49;62.25;;;25.63;;
64282;SDS011;50497;50.720;-2.084;2023-02-13T17:43:16;64.00;;;26.60;;
64282;SDS011;50497;50.720;-2.084;2023-02-13T17:45:44;59.25;;;25.75;;
64282;SDS011;50497;50.720;-2.084;2023-02-13T17:48:14;59.25;;;26.23;;
64282;SDS011;50497;50.720;-2.084;2023-02-13T17:50:41;70.28;;;28.95;;
64282;SDS011;50497;50.720;-2.084;2023-02-13T17:53:20;69.22;;;29.02;;
64282;SDS011;50497;50.720;-2.084;2023-02-13T17:55:48;57.53;;;24.67;;
64282;SDS011;50497;50.720;-2.084;2023-02-13T17:58:18;60.97;;;26.08;;
64282;SDS011;50497;50.720;-2.084;2023-02-13T18:00:48;63.22;;;25.90;;
64282;SDS011;50497;50.720;-2.084;2023-02-13T18:03:13;62.65;;;26.95;;
64282;SDS011;50497;50.720;-2.084;2023-02-13T18:05:39;64.80;;;26.92;;
64282;SDS011;50497;50.720;-2.084;2023-02-13T18:08:16;68.70;;;27.27;;
64282;SDS011;50497;50.720;-2.084;2023-02-13T18:10:47;68.40;;;27.60;;
64282;SDS011;50497;50.720;-2.084;2023-02-13T18:13:21;61.55;;;26.02;;
64282;SDS011;50497;50.720;-2.084;2023-02-13T18:15:52;65.38;;;27.63;;
64282;SDS011;50497;50.720;-2.084;2023-02-13T18:18:20;67.57;;;28.13;;
64282;SDS011;50497;50.720;-2.084;2023-02-13T18:20:58;66.68;;;27.23;;
64282;SDS011;50497;50.720;-2.084;2023-02-13T18:23:26;67.25;;;27.38;;
64282;SDS011;50497;50.720;-2.084;2023-02-13T18:26:13;70.40;;;27.02;;
64282;SDS011;50497;50.720;-2.084;2023-02-13T18:28:38;72.00;;;30.42;;
64282;SDS011;50497;50.720;-2.084;2023-02-13T18:31:04;71.57;;;27.77;;
64282;SDS011;50497;50.720;-2.084;2023-02-13T18:33:38;74.00;;;31.85;;